createdAt,value
2022-08-10T00:01:41.329Z,101068.00
2022-08-10T00:04:08.746Z,101061.94
2022-08-10T00:06:38.367Z,101068.22
2022-08-10T00:09:06.096Z,101062.16
2022-08-10T00:11:33.729Z,101069.06
2022-08-10T00:14:01.158Z,101059.09
2022-08-10T00:16:28.792Z,101061.69
2022-08-10T00:18:56.244Z,101055.31
2022-08-10T00:21:23.750Z,101054.94
2022-08-10T00:23:54.974Z,101057.59
2022-08-10T00:26:22.363Z,101057.66
2022-08-10T00:28:49.762Z,101051.06
2022-08-10T00:31:17.220Z,101049.50
2022-08-10T00:33:44.650Z,101040.88
2022-08-10T00:36:12.187Z,101044.78
2022-08-10T00:38:39.721Z,101042.38
2022-08-10T00:41:07.146Z,101045.66
2022-08-10T00:43:34.684Z,101055.91
2022-08-10T00:46:02.119Z,101052.13
2022-08-10T00:48:30.602Z,101064.56
2022-08-10T00:51:02.002Z,101059.09
2022-08-10T00:53:30.434Z,101052.97
2022-08-10T00:56:35.836Z,101057.00
2022-08-10T00:58:46.524Z,101051.06
2022-08-10T01:02:08.857Z,101068.38
2022-08-10T01:04:36.778Z,101052.19
2022-08-10T01:07:21.856Z,101058.31
2022-08-10T01:09:59.743Z,101054.81
2022-08-10T01:12:50.472Z,101060.16
2022-08-10T01:15:37.192Z,101059.88
2022-08-10T01:18:17.314Z,101056.50
2022-08-10T01:20:56.640Z,101049.44
2022-08-10T01:23:51.193Z,101043.47
2022-08-10T01:26:40.686Z,101049.59
2022-08-10T01:29:08.472Z,101048.53
2022-08-10T01:31:42.829Z,101048.47
2022-08-10T01:34:18.253Z,101051.78
2022-08-10T01:36:50.156Z,101040.94
2022-08-10T01:39:25.574Z,101046.25
2022-08-10T01:41:58.295Z,101042.72
2022-08-10T01:44:32.355Z,101041.72
2022-08-10T01:47:24.179Z,101042.94
2022-08-10T01:49:56.761Z,101035.88
2022-08-10T01:52:27.129Z,101035.78
2022-08-10T01:54:56.722Z,101046.19
2022-08-10T01:57:27.227Z,101041.22
2022-08-10T02:00:01.990Z,101046.19
2022-08-10T02:02:31.717Z,101048.00
2022-08-10T02:05:02.378Z,101044.84
2022-08-10T02:07:32.710Z,101044.78
2022-08-10T02:10:20.626Z,101043.19
2022-08-10T02:12:50.090Z,101036.19
2022-08-10T02:15:20.510Z,101046.38
2022-08-10T02:17:58.153Z,101046.47
2022-08-10T02:20:35.809Z,101041.72
2022-08-10T02:23:08.807Z,101039.44
2022-08-10T02:25:41.327Z,101048.03
2022-08-10T02:28:29.488Z,101043.13
2022-08-10T02:31:12.008Z,101047.47
2022-08-10T02:33:56.484Z,101047.72
2022-08-10T02:36:29.630Z,101051.78
2022-08-10T02:39:01.173Z,101047.88
2022-08-10T02:42:18.086Z,101040.25
2022-08-10T02:45:21.568Z,101044.16
2022-08-10T02:47:52.892Z,101044.41
2022-08-10T02:50:28.077Z,101053.22
2022-08-10T02:53:05.268Z,101050.97
2022-08-10T02:55:40.878Z,101048.78
2022-08-10T02:58:17.756Z,101052.53
2022-08-10T03:00:53.608Z,101056.44
2022-08-10T03:03:26.812Z,101063.09
2022-08-10T03:06:00.764Z,101052.56
2022-08-10T03:08:34.119Z,101060.09
2022-08-10T03:11:05.204Z,101054.69
2022-08-10T03:13:35.663Z,101054.13
2022-08-10T03:16:04.502Z,101049.59
2022-08-10T03:18:33.451Z,101044.41
2022-08-10T03:21:02.097Z,101044.97
2022-08-10T03:23:30.305Z,101059.41
2022-08-10T03:26:01.137Z,101053.03
2022-08-10T03:28:32.235Z,101070.59
2022-08-10T03:31:01.607Z,101061.28
2022-08-10T03:33:33.308Z,101060.59
2022-08-10T03:36:43.890Z,101066.69
2022-08-10T03:38:51.937Z,101058.16
2022-08-10T03:41:29.882Z,101059.63
2022-08-10T03:44:06.261Z,101069.59
2022-08-10T03:46:37.660Z,101068.66
2022-08-10T03:49:06.241Z,101061.59
2022-08-10T03:51:35.635Z,101060.34
2022-08-10T03:54:07.343Z,101055.09
2022-08-10T03:56:37.650Z,101057.16
2022-08-10T03:59:07.643Z,101052.38
2022-08-10T04:02:47.140Z,101057.06
2022-08-10T04:04:25.070Z,101053.84
2022-08-10T04:06:56.595Z,101058.50
2022-08-10T04:09:53.453Z,101058.72
2022-08-10T04:12:21.385Z,101058.25
2022-08-10T04:14:51.327Z,101050.56
2022-08-10T04:18:02.919Z,101056.09
2022-08-10T04:20:39.839Z,101055.84
2022-08-10T04:23:12.366Z,101054.38
2022-08-10T04:25:41.109Z,101057.81
2022-08-10T04:28:09.363Z,101059.16
2022-08-10T04:30:37.996Z,101052.31
2022-08-10T04:33:08.142Z,101057.44
2022-08-10T04:35:37.249Z,101051.94
2022-08-10T04:38:07.080Z,101050.00
2022-08-10T04:40:34.567Z,101068.69
2022-08-10T04:43:13.374Z,101063.44
2022-08-10T04:45:49.012Z,101049.72
2022-08-10T04:48:39.955Z,101049.22
2022-08-10T04:51:15.271Z,101054.22
2022-08-10T04:54:05.990Z,101055.34
2022-08-10T04:56:38.960Z,101053.25
2022-08-10T04:59:08.152Z,101050.06
2022-08-10T05:02:21.449Z,101048.50
2022-08-10T05:04:36.054Z,101045.44
2022-08-10T05:07:08.154Z,101050.72
2022-08-10T05:10:02.949Z,101045.78
2022-08-10T05:12:25.019Z,101057.69
2022-08-10T05:14:54.661Z,101050.91
2022-08-10T05:17:23.743Z,101040.97
2022-08-10T05:20:04.724Z,101048.19
2022-08-10T05:22:42.876Z,101057.34
2022-08-10T05:25:15.491Z,101058.16
2022-08-10T05:27:44.341Z,101051.53
2022-08-10T05:30:15.148Z,101055.03
2022-08-10T05:32:57.164Z,101058.69
2022-08-10T05:35:52.395Z,101052.66
2022-08-10T05:38:18.534Z,101059.81
2022-08-10T05:40:48.035Z,101044.41
2022-08-10T05:43:20.697Z,101054.88
2022-08-10T05:46:19.687Z,101053.75
2022-08-10T05:48:58.145Z,101040.56
2022-08-10T05:51:26.493Z,101040.03
2022-08-10T05:54:03.163Z,101050.19
2022-08-10T05:56:54.698Z,101048.56
2022-08-10T06:00:32.441Z,101043.88
2022-08-10T06:02:32.782Z,101048.31
2022-08-10T06:05:19.469Z,101043.94
2022-08-10T06:07:53.178Z,101045.06
2022-08-10T06:10:31.551Z,101046.16
2022-08-10T06:13:30.238Z,101043.41
2022-08-10T06:16:05.841Z,101044.47
2022-08-10T06:18:33.491Z,101040.09
2022-08-10T06:21:02.595Z,101039.25
2022-08-10T06:23:31.324Z,101039.50
2022-08-10T06:26:11.375Z,101038.63
2022-08-10T06:29:03.288Z,101054.00
2022-08-10T06:31:47.956Z,101052.03
2022-08-10T06:34:42.158Z,101052.72
2022-08-10T06:37:12.895Z,101048.84
2022-08-10T06:39:40.435Z,101050.25
2022-08-10T06:42:19.671Z,101045.28
2022-08-10T06:45:14.716Z,101044.34
2022-08-10T06:47:49.241Z,101041.19
2022-08-10T06:50:58.826Z,101041.34
2022-08-10T06:53:52.230Z,101042.09
2022-08-10T06:56:35.887Z,101054.28
2022-08-10T06:59:21.837Z,101049.84
2022-08-10T07:01:54.489Z,101050.25
2022-08-10T07:04:32.754Z,101039.28
2022-08-10T07:07:06.797Z,101039.13
2022-08-10T07:09:40.266Z,101043.16
2022-08-10T07:12:09.795Z,101041.31
2022-08-10T07:14:41.013Z,101046.31
2022-08-10T07:17:16.821Z,101041.38
2022-08-10T07:19:49.864Z,101039.75
2022-08-10T07:23:01.188Z,101039.81
2022-08-10T07:25:13.253Z,101046.09
2022-08-10T07:28:00.901Z,101036.88
2022-08-10T07:30:38.221Z,101036.34
2022-08-10T07:33:07.527Z,101035.13
2022-08-10T07:35:42.196Z,101031.25
2022-08-10T07:38:17.535Z,101033.16
2022-08-10T07:40:46.951Z,101034.66
2022-08-10T07:43:17.019Z,101043.63
2022-08-10T07:45:46.776Z,101042.13
2022-08-10T07:48:30.267Z,101037.34
2022-08-10T07:51:02.076Z,101034.41
2022-08-10T07:53:38.690Z,101030.91
2022-08-10T07:56:21.168Z,101031.53
2022-08-10T07:59:01.835Z,101036.88
2022-08-10T08:01:33.637Z,101033.19
2022-08-10T08:04:05.479Z,101024.03
2022-08-10T08:06:42.314Z,101029.59
2022-08-10T08:09:11.145Z,101028.03
2022-08-10T08:11:43.255Z,101025.16
2022-08-10T08:14:12.998Z,101022.69
2022-08-10T08:16:44.313Z,101022.91
2022-08-10T08:19:35.497Z,101028.34
2022-08-10T08:24:15.036Z,101023.41
2022-08-10T08:24:52.256Z,101018.88
2022-08-10T08:27:21.802Z,101021.25
2022-08-10T08:29:50.892Z,101022.69
2022-08-10T08:32:22.732Z,101019.50
2022-08-10T08:34:55.912Z,101022.44
2022-08-10T08:38:32.172Z,101014.66
2022-08-10T08:40:29.488Z,101022.75
2022-08-10T08:43:22.410Z,101008.13
2022-08-10T08:46:20.565Z,101006.13
2022-08-10T08:49:06.460Z,101009.38
2022-08-10T08:52:09.696Z,101003.56
2022-08-10T08:55:52.412Z,100998.44
2022-08-10T08:58:23.852Z,100999.56
2022-08-10T09:01:40.418Z,100995.84
2022-08-10T09:04:36.679Z,100993.31
2022-08-10T09:07:59.922Z,100988.63
2022-08-10T09:10:22.373Z,100986.66
2022-08-10T09:13:05.242Z,100990.69
2022-08-10T09:15:44.899Z,100988.91
2022-08-10T09:18:47.629Z,100992.13
2022-08-10T09:21:28.249Z,100981.38
2022-08-10T09:24:21.969Z,100978.78
2022-08-10T09:26:52.690Z,100978.53
2022-08-10T09:29:27.954Z,100971.63
2022-08-10T09:36:16.682Z,100961.78
2022-08-10T09:36:19.621Z,100962.22
2022-08-10T09:38:58.525Z,100968.06
2022-08-10T09:41:41.798Z,100964.78
2022-08-10T09:44:21.556Z,100965.44
2022-08-10T09:47:05.964Z,100960.44
2022-08-10T09:50:05.355Z,100958.78
2022-08-10T09:53:10.296Z,100956.13
2022-08-10T09:56:18.117Z,100959.94
2022-08-10T09:58:47.075Z,100944.41
2022-08-10T10:02:02.651Z,100948.06
2022-08-10T10:04:50.248Z,100939.59
2022-08-10T10:07:25.923Z,100935.63
2022-08-10T10:10:33.251Z,100933.25
2022-08-10T10:13:09.734Z,100931.41
2022-08-10T10:16:18.269Z,100935.72
2022-08-10T10:19:01.897Z,100931.50
2022-08-10T10:21:54.153Z,100935.84
2022-08-10T10:24:51.410Z,100931.41
2022-08-10T10:27:30.777Z,100929.44
2022-08-10T10:30:12.562Z,100925.94
2022-08-10T10:33:00.754Z,100920.41
2022-08-10T10:35:44.473Z,100925.16
2022-08-10T10:38:13.911Z,100921.59
2022-08-10T10:40:48.995Z,100929.66
2022-08-10T10:43:42.608Z,100909.81
2022-08-10T10:47:11.622Z,100916.59
2022-08-10T10:49:50.889Z,100910.31
2022-08-10T10:52:51.687Z,100916.84
2022-08-10T10:56:13.549Z,100907.78
2022-08-10T10:58:59.048Z,100898.69
2022-08-10T11:01:39.193Z,100903.84
2022-08-10T11:04:15.360Z,100900.88
2022-08-10T11:07:10.562Z,100895.03
2022-08-10T11:10:05.637Z,100901.25
2022-08-10T11:12:50.914Z,100888.09
2022-08-10T11:15:36.403Z,100892.50
2022-08-10T11:18:35.743Z,100895.13
2022-08-10T11:21:21.730Z,100887.66
2022-08-10T11:24:48.979Z,100879.59
2022-08-10T11:27:21.843Z,100891.63
2022-08-10T11:30:06.689Z,100884.97
2022-08-10T11:32:52.627Z,100891.50
2022-08-10T11:35:34.194Z,100892.38
2022-08-10T11:38:52.239Z,100882.41
2022-08-10T11:42:09.401Z,100890.66
2022-08-10T11:44:34.410Z,100891.59
2022-08-10T11:47:04.666Z,100893.75
2022-08-10T11:49:37.904Z,100890.28
2022-08-10T11:52:33.602Z,100881.88
2022-08-10T11:55:11.056Z,100870.88
2022-08-10T11:57:54.273Z,100875.00
2022-08-10T12:00:29.608Z,100872.59
2022-08-10T12:03:04.271Z,100873.28
2022-08-10T12:05:52.632Z,100864.66
2022-08-10T12:10:04.950Z,100857.75
2022-08-10T12:11:24.080Z,100855.13
2022-08-10T12:14:20.364Z,100861.28
2022-08-10T12:16:58.472Z,100863.16
2022-08-10T12:20:01.109Z,100854.09
2022-08-10T12:22:36.396Z,100850.19
2022-08-10T12:25:11.490Z,100853.94
2022-08-10T12:28:09.739Z,100851.41
2022-08-10T12:30:46.531Z,100854.75
2022-08-10T12:33:29.221Z,100851.69
2022-08-10T12:36:22.373Z,100852.13
2022-08-10T12:39:02.454Z,100832.94
2022-08-10T12:41:43.573Z,100844.47
2022-08-10T12:44:41.307Z,100838.19
2022-08-10T12:47:14.278Z,100836.13
2022-08-10T12:50:30.709Z,100834.47
2022-08-10T12:53:41.303Z,100832.31
2022-08-10T12:56:08.862Z,100839.63
2022-08-10T12:59:00.151Z,100838.28
2022-08-10T13:02:10.642Z,100839.28
2022-08-10T13:04:28.765Z,100835.28
2022-08-10T13:07:00.973Z,100841.75
2022-08-10T13:09:29.258Z,100839.13
2022-08-10T13:12:35.974Z,100837.66
2022-08-10T13:14:55.202Z,100835.34
2022-08-10T13:17:38.721Z,100835.25
2022-08-10T13:20:39.069Z,100834.59
2022-08-10T13:23:14.835Z,100835.41
2022-08-10T13:25:48.277Z,100833.44
2022-08-10T13:28:35.894Z,100827.09
2022-08-10T13:31:11.367Z,100826.03
2022-08-10T13:34:38.785Z,100830.41
2022-08-10T13:36:43.029Z,100824.44
2022-08-10T13:39:12.897Z,100823.88
2022-08-10T13:41:44.257Z,100826.66
2022-08-10T13:44:15.346Z,100824.44
2022-08-10T13:46:51.390Z,100826.84
2022-08-10T13:49:21.816Z,100831.53
2022-08-10T13:51:57.131Z,100826.38
2022-08-10T13:54:37.310Z,100824.63
2022-08-10T13:57:06.035Z,100821.16
2022-08-10T14:00:36.477Z,100809.13
2022-08-10T14:02:49.131Z,100820.16
2022-08-10T14:05:27.159Z,100824.53
2022-08-10T14:08:01.130Z,100822.09
2022-08-10T14:11:04.073Z,100814.72
2022-08-10T14:13:26.734Z,100812.97
2022-08-10T14:15:56.732Z,100813.47
2022-08-10T14:18:25.824Z,100808.13
2022-08-10T14:20:57.497Z,100807.31
2022-08-10T14:23:25.054Z,100796.06
2022-08-10T14:25:54.088Z,100802.31
2022-08-10T14:28:56.298Z,100799.91
2022-08-10T14:31:29.153Z,100798.78
2022-08-10T14:33:59.587Z,100795.59
2022-08-10T14:36:58.589Z,100799.50
2022-08-10T14:39:31.317Z,100802.13
2022-08-10T14:42:15.777Z,100800.16
2022-08-10T14:45:00.202Z,100804.13
2022-08-10T14:47:53.745Z,100796.59
2022-08-10T14:50:32.239Z,100790.66
2022-08-10T14:53:09.444Z,100803.91
2022-08-10T14:55:58.895Z,100801.63
2022-08-10T14:58:38.679Z,100799.31
2022-08-10T15:01:08.624Z,100790.47
2022-08-10T15:04:01.608Z,100796.84
2022-08-10T15:06:32.107Z,100794.06
2022-08-10T15:09:20.245Z,100790.94
2022-08-10T15:12:14.079Z,100790.94
2022-08-10T15:14:47.027Z,100791.09
2022-08-10T15:17:26.437Z,100787.81
2022-08-10T15:20:04.711Z,100781.59
2022-08-10T15:22:49.848Z,100782.22
2022-08-10T15:25:24.310Z,100783.50
2022-08-10T15:28:06.389Z,100789.19
2022-08-10T15:30:40.553Z,100788.25
2022-08-10T15:34:03.820Z,100789.50
2022-08-10T15:36:38.933Z,100789.97
2022-08-10T15:40:25.089Z,100792.19
2022-08-10T15:42:08.955Z,100797.41
2022-08-10T15:44:43.311Z,100790.63
2022-08-10T15:47:24.658Z,100799.13
2022-08-10T15:50:03.203Z,100797.44
2022-08-10T15:53:01.837Z,100798.53
2022-08-10T15:55:41.744Z,100790.34
2022-08-10T15:58:38.889Z,100798.28
2022-08-10T16:02:14.098Z,100795.03
2022-08-10T16:04:08.716Z,100798.63
2022-08-10T16:06:44.836Z,100797.25
2022-08-10T16:10:22.009Z,100804.25
2022-08-10T16:12:29.707Z,100800.78
2022-08-10T16:15:04.427Z,100801.03
2022-08-10T16:17:54.778Z,100804.88
2022-08-10T16:20:30.281Z,100795.22
2022-08-10T16:23:02.959Z,100804.97
2022-08-10T16:25:51.696Z,100792.44
2022-08-10T16:28:23.647Z,100803.53
2022-08-10T16:30:56.983Z,100793.69
2022-08-10T16:33:54.322Z,100805.09
2022-08-10T16:36:20.844Z,100813.63
2022-08-10T16:38:50.659Z,100793.13
2022-08-10T16:42:00.387Z,100809.75
2022-08-10T16:44:11.397Z,100810.59
2022-08-10T16:46:44.771Z,100802.06
2022-08-10T16:49:15.541Z,100803.63
2022-08-10T16:51:48.349Z,100798.66
2022-08-10T16:54:27.568Z,100795.69
2022-08-10T16:57:01.935Z,100802.94
2022-08-10T16:59:34.236Z,100802.25
2022-08-10T17:02:03.332Z,100797.69
2022-08-10T17:04:33.523Z,100808.78
2022-08-10T17:07:07.476Z,100808.78
2022-08-10T17:09:37.778Z,100808.44
2022-08-10T17:12:13.445Z,100805.59
2022-08-10T17:14:43.628Z,100803.97
2022-08-10T17:17:21.810Z,100802.41
2022-08-10T17:19:51.018Z,100803.00
2022-08-10T17:22:24.224Z,100807.56
2022-08-10T17:25:21.157Z,100807.56
2022-08-10T17:28:04.911Z,100809.81
2022-08-10T17:30:46.173Z,100813.28
2022-08-10T17:33:30.803Z,100817.25
2022-08-10T17:36:03.668Z,100820.16
2022-08-10T17:38:33.918Z,100827.38
2022-08-10T17:41:12.431Z,100821.84
2022-08-10T17:43:57.822Z,100815.25
2022-08-10T17:46:38.718Z,100820.09
2022-08-10T17:49:09.012Z,100815.94
2022-08-10T17:51:39.611Z,100819.00
2022-08-10T17:54:36.299Z,100820.88
2022-08-10T17:57:12.546Z,100828.13
2022-08-10T17:59:42.905Z,100826.88
2022-08-10T18:02:14.947Z,100824.53
2022-08-10T18:04:50.437Z,100815.13
2022-08-10T18:07:22.299Z,100817.72
2022-08-10T18:09:53.162Z,100810.91
2022-08-10T18:12:36.291Z,100811.28
2022-08-10T18:15:13.271Z,100810.91
2022-08-10T18:17:46.335Z,100809.88
2022-08-10T18:20:20.003Z,100818.47
2022-08-10T18:22:57.651Z,100813.22
2022-08-10T18:25:33.082Z,100812.53
2022-08-10T18:28:05.002Z,100810.03
2022-08-10T18:30:45.104Z,100812.38
2022-08-10T18:33:14.546Z,100802.97
2022-08-10T18:35:46.488Z,100809.09
2022-08-10T18:38:16.712Z,100803.63
2022-08-10T18:40:52.576Z,100812.47
2022-08-10T18:44:06.915Z,100807.91
2022-08-10T18:46:20.249Z,100805.69
2022-08-10T18:48:54.940Z,100798.78
2022-08-10T18:51:26.991Z,100801.47
2022-08-10T18:54:05.301Z,100800.63
2022-08-10T18:57:05.327Z,100800.63
2022-08-10T18:59:34.144Z,100804.59
2022-08-10T19:02:26.223Z,100793.94
2022-08-10T19:05:30.552Z,100798.34
2022-08-10T19:08:08.299Z,100787.69
2022-08-10T19:11:09.216Z,100785.06
2022-08-10T19:13:50.667Z,100787.22
2022-08-10T19:16:19.474Z,100781.53
2022-08-10T19:19:05.477Z,100783.41
2022-08-10T19:22:02.279Z,100780.13
2022-08-10T19:25:03.021Z,100784.81
2022-08-10T19:27:59.438Z,100782.09
2022-08-10T19:30:57.547Z,100777.69
2022-08-10T19:33:44.289Z,100778.56
2022-08-10T19:36:29.774Z,100770.59
2022-08-10T19:39:17.952Z,100775.50
2022-08-10T19:41:54.499Z,100773.00
2022-08-10T19:44:32.019Z,100781.03
2022-08-10T19:47:08.580Z,100780.81
2022-08-10T19:49:47.384Z,100764.06
2022-08-10T19:52:38.748Z,100765.25
2022-08-10T19:55:17.726Z,100773.28
2022-08-10T19:58:01.350Z,100765.53
2022-08-10T20:00:41.177Z,100765.34
2022-08-10T20:03:47.353Z,100760.41
2022-08-10T20:06:24.170Z,100756.81
2022-08-10T20:09:04.018Z,100761.69
2022-08-10T20:11:56.843Z,100755.16
2022-08-10T20:14:24.292Z,100748.28
2022-08-10T20:17:01.432Z,100743.84
2022-08-10T20:19:52.434Z,100750.72
2022-08-10T20:22:33.869Z,100744.72
2022-08-10T20:25:14.388Z,100744.13
2022-08-10T20:28:00.922Z,100744.66
2022-08-10T20:30:33.585Z,100746.91
2022-08-10T20:33:09.876Z,100746.31
2022-08-10T20:35:48.661Z,100744.72
2022-08-10T20:38:43.556Z,100736.41
2022-08-10T20:41:23.363Z,100749.13
2022-08-10T20:44:08.988Z,100744.13
2022-08-10T20:47:02.233Z,100744.22
2022-08-10T20:50:01.352Z,100740.38
2022-08-10T20:52:31.578Z,100733.66
2022-08-10T20:55:02.637Z,100728.75
2022-08-10T20:57:55.721Z,100730.16
2022-08-10T21:00:42.684Z,100732.66
2022-08-10T21:03:31.362Z,100730.97
2022-08-10T21:06:31.699Z,100726.56
2022-08-10T21:09:23.544Z,100718.88
2022-08-10T21:12:05.993Z,100719.72
2022-08-10T21:15:14.485Z,100717.25
2022-08-10T21:17:55.031Z,100710.63
2022-08-10T21:20:47.362Z,100717.06
2022-08-10T21:23:17.967Z,100705.78
2022-08-10T21:25:59.314Z,100709.91
2022-08-10T21:28:53.057Z,100705.03
2022-08-10T21:31:31.337Z,100703.63
2022-08-10T21:34:19.447Z,100698.13
2022-08-10T21:37:08.305Z,100697.06
2022-08-10T21:39:56.412Z,100699.91
2022-08-10T21:43:11.217Z,100696.09
2022-08-10T21:46:10.796Z,100697.19
2022-08-10T21:49:23.323Z,100699.69
2022-08-10T21:52:37.292Z,100689.81
2022-08-10T21:55:55.943Z,100703.91
2022-08-10T21:58:52.201Z,100697.88
2022-08-10T22:01:51.443Z,100695.19
2022-08-10T22:04:40.142Z,100689.47
2022-08-10T22:07:36.679Z,100692.47
2022-08-10T22:10:26.268Z,100686.44
2022-08-10T22:13:17.879Z,100697.97
2022-08-10T22:16:11.987Z,100691.31
2022-08-10T22:19:03.417Z,100694.03
2022-08-10T22:22:28.291Z,100692.34
2022-08-10T22:25:45.425Z,100695.38
2022-08-10T22:28:38.548Z,100685.69
2022-08-10T22:31:52.007Z,100680.75
2022-08-10T22:35:00.196Z,100684.66
2022-08-10T22:38:16.651Z,100679.13
2022-08-10T22:41:05.555Z,100680.25
2022-08-10T22:43:55.167Z,100694.84
2022-08-10T22:46:46.334Z,100685.34
2022-08-10T22:49:23.630Z,100692.78
2022-08-10T22:52:03.496Z,100685.84
2022-08-10T22:55:00.191Z,100679.84
2022-08-10T22:57:46.213Z,100676.47
2022-08-10T23:00:19.527Z,100684.84
2022-08-10T23:03:22.664Z,100680.44
2022-08-10T23:06:04.191Z,100681.00
2022-08-10T23:08:45.499Z,100687.38
2022-08-10T23:11:30.177Z,100679.44
2022-08-10T23:14:04.207Z,100677.75
2022-08-10T23:16:58.794Z,100677.75
2022-08-10T23:19:30.092Z,100688.78
2022-08-10T23:22:09.163Z,100678.91
2022-08-10T23:24:43.229Z,100675.56
2022-08-10T23:27:38.424Z,100682.19
2022-08-10T23:30:10.856Z,100670.63
2022-08-10T23:32:46.664Z,100680.84
2022-08-10T23:36:31.339Z,100663.47
2022-08-10T23:38:14.381Z,100675.03
2022-08-10T23:40:48.219Z,100667.84
2022-08-10T23:46:24.159Z,100663.69
2022-08-10T23:48:58.508Z,100658.47
2022-08-10T23:51:54.976Z,100659.56
2022-08-10T23:54:25.834Z,100660.72
2022-08-10T23:57:01.008Z,100662.63
2022-08-10T23:59:31.886Z,100666.72
